首页
METAR-TAF:

METAR-TAF

机场 :

廊曼国际机场

曼谷, 泰国

纬度: 13-54-45N, 经度: 100-36-24E, 海拔: 4米

当前天气观测

该预报发布于32分钟前的03:00 UTC
风速8节,风向西南,在南转西南西之间变化
温度 33°C
湿度 59%
气压 1008 hPa
能见度10公里或以上
少量云层高于3000英尺

METAR: VTBD 140300Z 23008KT 200V270 9999 FEW030 33/24 Q1008 NOSIG

时间: 10:32 (03:32 UTC)

预报

该预报发布于4小时和32分钟前的23:00 UTC
预报有效从14日的 00点(UTC)到 15日的 06点(UTC)
风速5节,风向西
能见度10公里或以上
少量云层高于2000英尺
散云层高于10000英尺
成为
从 14日的 01点(UTC)到 14日的 03点(UTC)
风速5节,风向南转西南
短暂存在
从 14日的 08点(UTC)到 14日的 12点(UTC)
风速15节,风向多变
能見度: 4000
少量云层高于1800英尺, 积雨云.
散云层高于3500英尺
多云层高于10000英尺
雷暴, 雨,

TAF: VTBD 132300Z 1400/1506 27005KT 9999 FEW020 SCT100 BECMG 1401/1403 21005KT TEMPO 1408/1412 VRB15KT 4000 TSRA FEW018CB SCT035 BKN100

超过4000个机场的气象观测和天气预报(METAR&TAF报告)。

可查询的气象台以黄色和红色小点在地图上表示。

将鼠标移到小点上方,可查看气象台名称。

然后点击查看天气观测和预报。

如需切换地图:点击带黑十字的绿色按钮放大地图;点击带横线的绿色按钮缩小地图;或者点击绿色箭头查看邻近地区的地图。


METAR-TAF: